Time;durP1;ratioP1;P1;durP2;ratioP2;P2;SDS_P1;SDS_P2;PMS_P1;PMS_P2;Temp;Humidity;BMP_temperature;BMP_pressure;BME280_temperature;BME280_humidity;BME280_pressure;Samples;Min_cycle;Max_cycle;Signal;HPM_P1;HPM_P2
2022/02/01 00:02:08;;;;;;;0.85;0.40;;;;;;;-148.56;100.00;61375.16;4913704;28;20110;-66
2022/02/01 00:04:45;;;;;;;2.28;0.60;;;;;;;-148.56;100.00;61375.16;4923407;28;20027;-68
2022/02/01 00:10:13;;;;;;;1.17;0.63;;;;;;;-148.56;100.00;61375.16;4913068;28;20049;-66
2022/02/01 00:15:24;;;;;;;1.80;0.60;;;;;;;-148.56;100.00;61375.16;4937877;28;20057;-65
2022/02/01 00:18:17;;;;;;;1.80;0.57;;;;;;;-148.56;100.00;61375.16;4926938;29;20035;-69
2022/02/01 00:36:51;;;;;;;0.73;0.50;;;;;;;-148.56;100.00;61375.16;4926775;29;20500;-69
2022/02/01 00:39:18;;;;;;;0.60;0.40;;;;;;;-148.56;100.00;61375.16;4927722;28;20533;-68
2022/02/01 00:41:48;;;;;;;1.38;0.50;;;;;;;-148.56;100.00;61375.16;4929251;28;20019;-68
2022/02/01 00:44:16;;;;;;;1.10;0.40;;;;;;;-148.56;100.00;61375.16;4947786;28;20035;-69
2022/02/01 00:46:41;;;;;;;1.40;0.57;;;;;;;-148.56;100.00;61375.16;4924183;28;20027;-66
2022/02/01 00:49:06;;;;;;;1.17;0.50;;;;;;;-148.56;100.00;61375.16;4919730;28;20815;-67
2022/02/01 00:51:32;;;;;;;2.75;0.40;;;;;;;-148.56;100.00;61375.16;4932080;28;20031;-65
2022/02/01 00:53:57;;;;;;;1.08;0.80;;;;;;;-148.56;100.00;61375.16;4914531;28;20061;-66
2022/02/01 00:56:24;;;;;;;0.85;0.60;;;;;;;-148.56;100.00;61375.16;4915202;28;20678;-64
2022/02/01 00:58:49;;;;;;;1.65;0.50;;;;;;;-148.56;100.00;61375.16;4913801;28;20049;-66
2022/02/01 01:01:15;;;;;;;0.43;0.30;;;;;;;-148.56;100.00;61375.16;4914633;28;21057;-67
2022/02/01 01:03:40;;;;;;;2.30;0.60;;;;;;;-148.56;100.00;61375.16;4912347;28;20035;-67
2022/02/01 01:06:06;;;;;;;1.60;0.60;;;;;;;-148.56;100.00;61375.16;4909531;28;20070;-67
2022/02/01 01:08:32;;;;;;;1.08;0.52;;;;;;;-148.56;100.00;61375.16;4914369;28;20027;-68
2022/02/01 01:10:58;;;;;;;2.25;0.75;;;;;;;-148.56;100.00;61375.16;4911530;28;20155;-66
2022/02/01 01:38:44;;;;;;;1.42;0.60;;;;;;;-148.56;100.00;61375.16;4920037;28;20203;-67
2022/02/01 01:46:29;;;;;;;1.30;0.82;;;;;;;-148.56;100.00;61375.16;4909152;28;20454;-68
2022/02/01 01:54:19;;;;;;;1.38;0.63;;;;;;;-148.56;100.00;61375.16;4909005;28;20046;-64
2022/02/01 01:56:45;;;;;;;1.15;0.50;;;;;;;-148.56;100.00;61375.16;4925737;28;20031;-64
2022/02/01 01:59:10;;;;;;;1.60;0.55;;;;;;;-148.56;100.00;61375.16;4909237;28;23188;-68
2022/02/01 02:01:36;;;;;;;1.13;0.60;;;;;;;-148.56;100.00;61375.16;4914174;28;20037;-68
2022/02/01 02:04:04;;;;;;;0.60;0.40;;;;;;;-148.56;100.00;61375.16;4922541;28;20035;-65
2022/02/01 02:06:33;;;;;;;1.05;0.50;;;;;;;-148.56;100.00;61375.16;4911398;28;20031;-67
2022/02/01 02:09:01;;;;;;;2.05;0.63;;;;;;;-148.56;100.00;61375.16;4923638;28;20023;-68
2022/02/01 02:16:41;;;;;;;4.80;0.65;;;;;;;-148.56;100.00;61375.16;4908852;28;20146;-68
2022/02/01 02:19:07;;;;;;;3.15;0.80;;;;;;;-148.56;100.00;61375.16;4907586;28;20217;-69
2022/02/01 02:21:32;;;;;;;1.20;0.63;;;;;;;-148.56;100.00;61375.16;4908477;28;20035;-67
2022/02/01 02:23:58;;;;;;;2.28;0.75;;;;;;;-148.56;100.00;61375.16;4908212;28;20027;-66
2022/02/01 02:26:24;;;;;;;2.17;0.70;;;;;;;-148.56;100.00;61375.16;4910754;28;20035;-68
2022/02/01 02:28:49;;;;;;;1.63;0.52;;;;;;;-148.56;100.00;61375.16;4916948;28;21336;-68
2022/02/01 02:31:16;;;;;;;3.38;0.60;;;;;;;-148.56;100.00;61375.16;4912541;28;20031;-67
2022/02/01 02:33:41;;;;;;;3.22;1.05;;;;;;;-148.56;100.00;61375.16;4912815;28;20030;-69
2022/02/01 02:36:18;;;;;;;1.17;0.57;;;;;;;-148.56;100.00;61375.16;4915437;28;20042;-68
2022/02/01 02:39:24;;;;;;;1.50;0.68;;;;;;;-148.56;100.00;61375.16;4914718;28;20042;-65
2022/02/01 02:41:38;;;;;;;2.28;0.63;;;;;;;-148.56;100.00;61375.16;4910172;28;20114;-69
2022/02/01 02:46:50;;;;;;;1.40;0.70;;;;;;;-148.56;100.00;61375.16;4908567;28;20062;-65
2022/02/01 02:49:20;;;;;;;1.70;0.60;;;;;;;-148.56;100.00;61375.16;4906967;28;20028;-69
2022/02/01 02:51:46;;;;;;;1.27;0.63;;;;;;;-148.56;100.00;61375.16;4923035;28;20085;-69
2022/02/01 02:54:21;;;;;;;2.58;0.70;;;;;;;-148.56;100.00;61375.16;4903548;28;21930;-68
2022/02/01 02:57:07;;;;;;;2.03;0.80;;;;;;;-148.56;100.00;61375.16;4906799;28;20114;-66
2022/02/01 02:59:33;;;;;;;2.28;0.77;;;;;;;-148.56;100.00;61375.16;4910719;28;20961;-64
2022/02/01 03:01:59;;;;;;;1.42;0.82;;;;;;;-148.56;100.00;61375.16;4908078;28;20042;-65
2022/02/01 03:04:26;;;;;;;0.98;0.60;;;;;;;-148.56;100.00;61375.16;4908275;28;20058;-67
2022/02/01 03:06:51;;;;;;;2.53;0.70;;;;;;;-148.56;100.00;61375.16;4905681;28;20063;-69
2022/02/01 03:09:19;;;;;;;1.35;0.70;;;;;;;-148.56;100.00;61375.16;4908206;28;21125;-69
2022/02/01 03:11:44;;;;;;;2.42;0.85;;;;;;;-148.56;100.00;61375.16;4906550;28;20031;-67
2022/02/01 03:14:23;;;;;;;1.25;0.60;;;;;;;-148.56;100.00;61375.16;4906850;28;21124;-63
2022/02/01 03:17:05;;;;;;;1.23;0.63;;;;;;;-148.56;100.00;61375.16;4907344;28;22274;-66
2022/02/01 03:22:14;;;;;;;1.60;0.82;;;;;;;-148.56;100.00;61375.16;4909840;28;19929;-65
2022/02/01 03:24:39;;;;;;;2.58;0.88;;;;;;;-148.56;100.00;61375.16;4917093;29;20035;-68
2022/02/01 03:27:05;;;;;;;1.08;0.52;;;;;;;-148.56;100.00;61375.16;4918957;29;20033;-65
2022/02/01 03:29:31;;;;;;;1.38;0.88;;;;;;;-148.56;100.00;61375.16;4919368;28;20118;-69
2022/02/01 03:31:56;;;;;;;1.00;0.70;;;;;;;-148.56;100.00;61375.16;4913120;28;20023;-63
2022/02/01 03:34:22;;;;;;;1.52;0.70;;;;;;;-148.56;100.00;61375.16;4918052;28;20844;-67
2022/02/01 03:36:47;;;;;;;2.90;0.88;;;;;;;-148.56;100.00;61375.16;4914381;28;20047;-64
2022/02/01 03:39:12;;;;;;;1.90;0.85;;;;;;;-148.56;100.00;61375.16;4910479;28;20458;-64
2022/02/01 03:41:38;;;;;;;2.78;1.13;;;;;;;-148.56;100.00;61375.16;4909245;28;20031;-66
2022/02/01 03:44:05;;;;;;;1.73;0.88;;;;;;;-148.56;100.00;61375.16;4907182;28;20031;-68
2022/02/01 03:46:31;;;;;;;1.95;0.90;;;;;;;-148.56;100.00;61375.16;4906549;28;20028;-68
2022/02/01 03:48:56;;;;;;;1.88;0.68;;;;;;;-148.56;100.00;61375.16;4906043;28;20027;-67
2022/02/01 03:51:22;;;;;;;1.55;0.60;;;;;;;-148.56;100.00;61375.16;4909546;28;20027;-68
2022/02/01 03:53:47;;;;;;;2.53;1.00;;;;;;;-148.56;100.00;61375.16;4910748;28;20030;-71
2022/02/01 03:56:12;;;;;;;1.02;0.73;;;;;;;-148.56;100.00;61375.16;4924684;28;20042;-68
2022/02/01 03:58:38;;;;;;;2.28;0.90;;;;;;;-148.56;100.00;61375.16;4928366;28;20028;-65
2022/02/01 04:01:03;;;;;;;2.28;0.70;;;;;;;-148.56;100.00;61375.16;4912065;28;20031;-67
2022/02/01 04:03:29;;;;;;;1.45;0.73;;;;;;;-148.56;100.00;61375.16;4910797;28;20027;-69
2022/02/01 04:05:54;;;;;;;1.92;0.73;;;;;;;-148.56;100.00;61375.16;4915689;28;20043;-68
2022/02/01 04:08:22;;;;;;;1.65;0.65;;;;;;;-148.56;100.00;61375.16;4915657;28;20035;-70
2022/02/01 04:10:49;;;;;;;2.90;0.68;;;;;;;-148.56;100.00;61375.16;4917040;28;20035;-68
2022/02/01 04:13:15;;;;;;;1.73;0.70;;;;;;;-148.56;100.00;61375.16;4918770;28;20038;-66
2022/02/01 04:15:41;;;;;;;3.58;0.65;;;;;;;-148.56;100.00;61375.16;4923152;28;20039;-67
2022/02/01 04:18:07;;;;;;;2.72;1.00;;;;;;;-148.56;100.00;61375.16;4930497;28;20027;-66
2022/02/01 04:20:33;;;;;;;1.70;0.85;;;;;;;-148.56;100.00;61375.16;4916485;28;20158;-64
2022/02/01 04:22:59;;;;;;;2.55;0.88;;;;;;;-148.56;100.00;61375.16;4920702;28;20031;-68
2022/02/01 04:25:24;;;;;;;1.65;0.80;;;;;;;-148.56;100.00;61375.16;4918549;29;20078;-66
2022/02/01 04:27:49;;;;;;;1.33;0.70;;;;;;;-148.56;100.00;61375.16;4908043;29;20171;-69
2022/02/01 04:30:16;;;;;;;1.17;0.77;;;;;;;-148.56;100.00;61375.16;4919670;29;20070;-65
2022/02/01 04:32:49;;;;;;;1.48;0.90;;;;;;;-148.56;100.00;61375.16;4919316;29;20038;-66
2022/02/01 04:35:16;;;;;;;3.92;1.33;;;;;;;-148.56;100.00;61375.16;4919885;28;20038;-65
2022/02/01 04:37:42;;;;;;;2.55;0.63;;;;;;;-148.56;100.00;61375.16;4922152;29;20056;-64
2022/02/01 04:40:10;;;;;;;1.90;0.80;;;;;;;-148.56;100.00;61375.16;4916009;29;20067;-68
2022/02/01 04:42:37;;;;;;;4.00;0.90;;;;;;;-148.56;100.00;61375.16;4920345;28;20732;-66
2022/02/01 04:45:08;;;;;;;2.13;0.90;;;;;;;-148.56;100.00;61375.16;4920983;29;20067;-70
2022/02/01 04:47:34;;;;;;;2.08;0.80;;;;;;;-148.56;100.00;61375.16;4924137;28;20136;-68
2022/02/01 04:50:01;;;;;;;2.45;0.88;;;;;;;-148.56;100.00;61375.16;4920809;28;20027;-65
2022/02/01 04:52:27;;;;;;;3.20;0.77;;;;;;;-148.56;100.00;61375.16;4914942;28;20082;-64
2022/02/01 04:54:53;;;;;;;1.42;0.77;;;;;;;-148.56;100.00;61375.16;4913718;28;20035;-60
2022/02/01 04:57:18;;;;;;;2.03;0.98;;;;;;;-148.56;100.00;61375.16;4911172;28;20095;-69
2022/02/01 04:59:44;;;;;;;1.98;0.88;;;;;;;-148.56;100.00;61375.16;4909977;28;20035;-67
2022/02/01 05:02:09;;;;;;;2.35;0.90;;;;;;;-148.56;100.00;61375.16;4908470;28;20161;-69
2022/02/01 05:04:35;;;;;;;3.35;1.15;;;;;;;-148.56;100.00;61375.16;4912135;28;20027;-69
2022/02/01 05:07:00;;;;;;;2.53;0.82;;;;;;;-148.56;100.00;61375.16;4910299;28;20019;-68
2022/02/01 05:09:27;;;;;;;2.65;1.00;;;;;;;-148.56;100.00;61375.16;4908288;28;20118;-68
2022/02/01 05:11:54;;;;;;;3.97;0.80;;;;;;;-148.56;100.00;61375.16;4908485;28;20027;-67
2022/02/01 05:14:23;;;;;;;5.65;0.80;;;;;;;-148.56;100.00;61375.16;4911046;28;20023;-66
2022/02/01 05:22:02;;;;;;;1.25;0.63;;;;;;;-148.56;100.00;61375.16;4910428;28;20042;-69
2022/02/01 05:24:27;;;;;;;1.85;0.60;;;;;;;-148.56;100.00;61375.16;4907094;28;20046;-69
2022/02/01 05:26:57;;;;;;;1.38;0.60;;;;;;;-148.56;100.00;61375.16;4921290;28;20578;-64
2022/02/01 05:29:23;;;;;;;1.73;0.85;;;;;;;-148.56;100.00;61375.16;4911528;28;20418;-68
2022/02/01 05:31:50;;;;;;;1.70;0.85;;;;;;;-148.56;100.00;61375.16;4917681;28;20034;-70
2022/02/01 05:34:15;;;;;;;3.35;1.20;;;;;;;-148.56;100.00;61375.16;4923923;29;20118;-67
2022/02/01 05:36:41;;;;;;;1.75;0.60;;;;;;;-148.56;100.00;61375.16;4907842;28;20383;-64
2022/02/01 05:39:20;;;;;;;1.85;0.80;;;;;;;-148.56;100.00;61375.16;4907977;28;20529;-69
2022/02/01 05:41:46;;;;;;;2.67;0.90;;;;;;;-148.56;100.00;61375.16;4908875;28;20635;-70
2022/02/01 05:44:11;;;;;;;1.80;0.88;;;;;;;-148.56;100.00;61375.16;4907818;28;20119;-68
2022/02/01 05:46:37;;;;;;;2.03;0.82;;;;;;;-148.56;100.00;61375.16;4908945;28;20067;-68
2022/02/01 05:49:03;;;;;;;2.90;1.17;;;;;;;-148.56;100.00;61375.16;4905828;28;20041;-70
2022/02/01 05:51:28;;;;;;;2.25;0.90;;;;;;;-148.56;100.00;61375.16;4905611;28;20050;-62
2022/02/01 05:53:54;;;;;;;12.70;0.98;;;;;;;-148.56;100.00;61375.16;4909371;28;20027;-68
2022/02/01 05:56:19;;;;;;;2.00;0.70;;;;;;;-148.56;100.00;61375.16;4904964;28;20648;-69
2022/02/01 05:58:45;;;;;;;3.58;0.98;;;;;;;-148.56;100.00;61375.16;4915640;28;20046;-66
2022/02/01 06:01:10;;;;;;;2.17;0.90;;;;;;;-148.56;100.00;61375.16;4916196;28;20950;-68
2022/02/01 06:03:35;;;;;;;2.95;0.63;;;;;;;-148.56;100.00;61375.16;4913529;28;20042;-69
2022/02/01 06:06:02;;;;;;;2.38;0.90;;;;;;;-148.56;100.00;61375.16;4913833;28;20035;-68
2022/02/01 06:08:27;;;;;;;2.80;1.00;;;;;;;-148.56;100.00;61375.16;4923577;28;20019;-67
2022/02/01 06:10:53;;;;;;;2.75;0.80;;;;;;;-148.56;100.00;61375.16;4910867;28;20063;-67
2022/02/01 06:13:18;;;;;;;1.75;0.80;;;;;;;-148.56;100.00;61375.16;4911279;28;20051;-67
2022/02/01 06:15:44;;;;;;;3.78;0.85;;;;;;;-148.56;100.00;61375.16;4910695;28;20035;-68
2022/02/01 06:18:09;;;;;;;1.60;0.65;;;;;;;-148.56;100.00;61375.16;4908230;28;20066;-70
2022/02/01 06:20:34;;;;;;;1.38;0.68;;;;;;;-148.56;100.00;61375.16;4910602;28;20067;-68
2022/02/01 06:23:00;;;;;;;2.05;0.80;;;;;;;-148.56;100.00;61375.16;4909596;28;20042;-66
2022/02/01 06:28:09;;;;;;;0.95;0.70;;;;;;;-148.56;100.00;61375.16;4919372;29;20058;-65
2022/02/01 06:30:34;;;;;;;2.03;0.95;;;;;;;-148.56;100.00;61375.16;4919325;28;20038;-65
2022/02/01 06:32:59;;;;;;;1.98;0.70;;;;;;;-148.56;100.00;61375.16;4921030;29;20718;-62
2022/02/01 06:35:25;;;;;;;1.00;0.65;;;;;;;-148.56;100.00;61375.16;4918715;29;20035;-69
2022/02/01 06:37:50;;;;;;;2.30;0.85;;;;;;;-148.56;100.00;61375.16;4911126;28;20039;-64
2022/02/01 06:40:18;;;;;;;1.73;0.70;;;;;;;-148.56;100.00;61375.16;4920117;28;20035;-66
2022/02/01 06:42:44;;;;;;;3.78;1.13;;;;;;;-148.56;100.00;61375.16;4923027;28;20540;-66
2022/02/01 06:45:09;;;;;;;1.17;0.60;;;;;;;-148.56;100.00;61375.16;4921147;29;20039;-65
2022/02/01 06:47:35;;;;;;;1.80;0.60;;;;;;;-148.56;100.00;61375.16;4918467;29;20039;-66
2022/02/01 06:50:00;;;;;;;2.58;0.90;;;;;;;-148.56;100.00;61375.16;4919772;28;20490;-66
2022/02/01 06:52:26;;;;;;;1.33;0.75;;;;;;;-148.56;100.00;61375.16;4920951;28;20046;-66
2022/02/01 06:54:51;;;;;;;1.33;0.60;;;;;;;-148.56;100.00;61375.16;4917802;29;20046;-66
2022/02/01 06:57:17;;;;;;;1.85;0.75;;;;;;;-148.56;100.00;61375.16;4915539;28;20036;-65
2022/02/01 06:59:42;;;;;;;1.38;0.70;;;;;;;-148.56;100.00;61375.16;4907743;28;20035;-65
2022/02/01 07:02:07;;;;;;;1.15;0.60;;;;;;;-148.56;100.00;61375.16;4907474;28;20167;-66
2022/02/01 07:04:33;;;;;;;2.05;0.50;;;;;;;-148.56;100.00;61375.16;4908742;28;20504;-71
2022/02/01 07:06:58;;;;;;;2.10;1.00;;;;;;;-148.56;100.00;61375.16;4909882;28;20032;-65
2022/02/01 07:09:24;;;;;;;3.35;1.10;;;;;;;-148.56;100.00;61375.16;4905243;28;20492;-66
2022/02/01 07:11:49;;;;;;;5.57;1.13;;;;;;;-148.56;100.00;61375.16;4908647;28;20035;-68
2022/02/01 07:14:15;;;;;;;5.07;1.20;;;;;;;-148.56;100.00;61375.16;4907680;28;20617;-69
2022/02/01 07:16:40;;;;;;;6.63;1.00;;;;;;;-148.56;100.00;61375.16;4923256;28;20382;-69
2022/02/01 07:19:06;;;;;;;3.22;1.38;;;;;;;-148.56;100.00;61375.16;4910620;28;22478;-67
2022/02/01 07:21:31;;;;;;;4.63;1.30;;;;;;;-148.56;100.00;61375.16;4905241;28;20850;-66
2022/02/01 07:23:56;;;;;;;6.75;1.42;;;;;;;-148.56;100.00;61375.16;4924620;28;20035;-66
2022/02/01 07:26:22;;;;;;;14.55;2.78;;;;;;;-148.56;100.00;61375.16;4914088;28;20042;-69
2022/02/01 07:28:48;;;;;;;7.53;3.17;;;;;;;-148.56;100.00;61375.16;4913228;28;20122;-71
2022/02/01 07:31:13;;;;;;;9.55;2.38;;;;;;;-148.56;100.00;61375.16;4919061;28;20798;-72
2022/02/01 07:33:39;;;;;;;9.32;2.42;;;;;;;-148.56;100.00;61375.16;4922727;28;20027;-67
2022/02/01 07:36:05;;;;;;;10.60;2.67;;;;;;;-148.56;100.00;61375.16;4910229;28;20023;-65
2022/02/01 07:38:30;;;;;;;8.73;2.25;;;;;;;-148.56;100.00;61375.16;4912495;28;20070;-67
2022/02/01 07:40:57;;;;;;;10.27;2.30;;;;;;;-148.56;100.00;61375.16;4925898;28;20600;-66
2022/02/01 07:43:24;;;;;;;5.25;2.10;;;;;;;-148.56;100.00;61375.16;4918706;28;20714;-67
2022/02/01 07:45:51;;;;;;;6.50;2.22;;;;;;;-148.56;100.00;61375.16;4933925;28;20070;-66
2022/02/01 07:48:16;;;;;;;8.15;2.20;;;;;;;-148.56;100.00;61375.16;4916139;28;20065;-69
2022/02/01 07:50:43;;;;;;;7.28;2.58;;;;;;;-148.56;100.00;61375.16;4925557;28;21294;-67
2022/02/01 07:53:09;;;;;;;6.55;2.20;;;;;;;-148.56;100.00;61375.16;4926104;28;20167;-68
2022/02/01 07:55:34;;;;;;;7.72;2.50;;;;;;;-148.56;100.00;61375.16;4910633;28;20880;-68
2022/02/01 07:58:00;;;;;;;9.20;2.50;;;;;;;-148.56;100.00;61375.16;4911561;28;20145;-67
2022/02/01 08:00:26;;;;;;;5.55;2.55;;;;;;;-148.56;100.00;61375.16;4910382;28;20023;-67
2022/02/01 08:02:55;;;;;;;7.95;2.47;;;;;;;-148.56;100.00;61375.16;4927332;28;20040;-68
2022/02/01 08:05:27;;;;;;;7.60;2.28;;;;;;;-148.56;100.00;61375.16;4908547;28;20039;-67
2022/02/01 08:07:53;;;;;;;7.90;2.30;;;;;;;-148.56;100.00;61375.16;4910185;28;20542;-65
2022/02/01 08:10:19;;;;;;;5.68;2.22;;;;;;;-148.56;100.00;61375.16;4907944;28;20078;-67
2022/02/01 08:20:31;;;;;;;6.20;2.40;;;;;;;-148.56;100.00;61375.16;4910896;28;20035;-70
2022/02/01 08:25:23;;;;;;;6.75;2.75;;;;;;;-148.56;100.00;61375.16;4907233;28;20628;-67
2022/02/01 08:27:49;;;;;;;6.43;2.42;;;;;;;-148.56;100.00;61375.16;4909762;28;20031;-68
2022/02/01 08:30:15;;;;;;;7.13;2.67;;;;;;;-148.56;100.00;61375.16;4924877;28;20038;-65
2022/02/01 08:32:40;;;;;;;8.85;2.70;;;;;;;-148.56;100.00;61375.16;4906055;28;20093;-68
2022/02/01 08:35:06;;;;;;;6.15;2.47;;;;;;;-148.56;100.00;61375.16;4924119;28;20046;-62
2022/02/01 08:37:32;;;;;;;5.22;2.47;;;;;;;-148.56;100.00;61375.16;4908007;28;20155;-67
2022/02/01 08:39:58;;;;;;;6.57;2.63;;;;;;;-148.56;100.00;61375.16;4911242;28;20712;-65
2022/02/01 08:42:23;;;;;;;5.97;2.60;;;;;;;-148.56;100.00;61375.16;4900063;28;20074;-65
2022/02/01 08:44:49;;;;;;;7.15;2.60;;;;;;;-148.56;100.00;61375.16;4906818;28;20031;-66
2022/02/01 08:47:15;;;;;;;9.77;2.80;;;;;;;-148.56;100.00;61375.16;4909136;28;20109;-64
2022/02/01 08:49:41;;;;;;;7.85;2.45;;;;;;;-148.56;100.00;61375.16;4906181;28;20110;-67
2022/02/01 08:52:10;;;;;;;5.57;2.20;;;;;;;-148.56;100.00;61375.16;4925550;28;20043;-67
2022/02/01 08:54:37;;;;;;;6.20;2.47;;;;;;;-148.56;100.00;61375.16;4909072;28;20066;-68
2022/02/01 08:57:21;;;;;;;8.70;2.17;;;;;;;-148.56;100.00;61375.16;4888258;28;20031;-68
2022/02/01 08:59:48;;;;;;;25.50;3.72;;;;;;;-148.56;100.00;61375.16;4899319;28;20990;-67
2022/02/01 09:02:15;;;;;;;11.25;2.92;;;;;;;-148.56;100.00;61375.16;4908369;28;20039;-65
2022/02/01 09:04:41;;;;;;;9.75;3.38;;;;;;;-148.56;100.00;61375.16;4924076;28;20035;-64
2022/02/01 09:07:06;;;;;;;7.75;2.70;;;;;;;-148.56;100.00;61375.16;4914637;28;20035;-62
2022/02/01 09:09:32;;;;;;;11.30;2.95;;;;;;;-148.56;100.00;61375.16;4901156;28;20024;-66
2022/02/01 09:11:57;;;;;;;8.75;2.80;;;;;;;-148.56;100.00;61375.16;4904929;28;20072;-60
2022/02/01 09:14:24;;;;;;;8.98;2.67;;;;;;;-148.56;100.00;61375.16;4919679;28;20123;-61
2022/02/01 09:16:49;;;;;;;9.77;2.90;;;;;;;-148.56;100.00;61375.16;4909793;28;20039;-60
2022/02/01 09:19:15;;;;;;;11.13;2.83;;;;;;;-148.56;100.00;61375.16;4907001;28;20189;-62
2022/02/01 09:21:41;;;;;;;7.88;2.50;;;;;;;-148.56;100.00;61375.16;4898315;28;20116;-59
2022/02/01 09:24:07;;;;;;;8.60;2.90;;;;;;;-148.56;100.00;61375.16;4901969;28;20576;-60
2022/02/01 09:26:33;;;;;;;7.57;2.90;;;;;;;-148.56;100.00;61375.16;4904036;28;20673;-60
2022/02/01 09:28:58;;;;;;;6.90;2.67;;;;;;;-148.56;100.00;61375.16;4904606;28;20034;-59
2022/02/01 09:31:23;;;;;;;7.63;2.33;;;;;;;-148.56;100.00;61375.16;4905151;28;20035;-59
2022/02/01 09:33:49;;;;;;;7.82;2.72;;;;;;;-148.56;100.00;61375.16;4918983;28;20039;-60
2022/02/01 09:36:14;;;;;;;8.70;2.63;;;;;;;-148.56;100.00;61375.16;4913019;28;20028;-60
2022/02/01 09:38:40;;;;;;;5.97;2.40;;;;;;;-148.56;100.00;61375.16;4919480;28;20455;-60
2022/02/01 09:41:05;;;;;;;5.70;2.55;;;;;;;-148.56;100.00;61375.16;4909036;28;20043;-59
2022/02/01 09:43:31;;;;;;;6.10;2.60;;;;;;;-148.56;100.00;61375.16;4907952;28;20042;-60
2022/02/01 09:45:57;;;;;;;12.60;2.63;;;;;;;-148.56;100.00;61375.16;4906060;28;20122;-59
2022/02/01 09:48:23;;;;;;;5.72;2.38;;;;;;;-148.56;100.00;61375.16;4906340;28;20034;-60
2022/02/01 09:50:49;;;;;;;7.13;2.30;;;;;;;-148.56;100.00;61375.16;4917198;28;20082;-66
2022/02/01 09:53:15;;;;;;;17.70;4.60;;;;;;;-148.56;100.00;61375.16;4915061;28;20832;-66
2022/02/01 09:55:40;;;;;;;20.50;4.30;;;;;;;-148.56;100.00;61375.16;4922335;28;20066;-65
2022/02/01 09:58:06;;;;;;;16.63;4.45;;;;;;;-148.56;100.00;61375.16;4918979;28;20118;-63
2022/02/01 10:00:35;;;;;;;17.80;5.10;;;;;;;-148.56;100.00;61375.16;4935006;28;20056;-65
2022/02/01 10:03:00;;;;;;;22.55;5.82;;;;;;;-148.56;100.00;61375.16;4920738;28;20399;-64
2022/02/01 10:05:26;;;;;;;14.20;4.68;;;;;;;-148.56;100.00;61375.16;4933359;28;20034;-63
2022/02/01 10:07:54;;;;;;;29.08;4.50;;;;;;;-148.56;100.00;61375.16;4920991;28;20042;-63
2022/02/01 10:10:20;;;;;;;20.02;5.28;;;;;;;-148.56;100.00;61375.16;4917573;28;20118;-62
2022/02/01 10:13:17;;;;;;;16.17;4.15;;;;;;;-148.56;100.00;61375.16;4916776;28;20031;-65
2022/02/01 10:16:15;;;;;;;12.45;4.00;;;;;;;-148.56;100.00;61375.16;4906300;28;20039;-66
2022/02/01 10:18:40;;;;;;;17.40;4.22;;;;;;;-148.56;100.00;61375.16;4916365;28;20194;-65
2022/02/01 10:21:09;;;;;;;16.85;4.28;;;;;;;-148.56;100.00;61375.16;4917435;28;20754;-65
2022/02/01 10:23:37;;;;;;;14.18;3.92;;;;;;;-148.56;100.00;61375.16;4934635;28;20035;-65
2022/02/01 10:26:11;;;;;;;13.10;3.50;;;;;;;-148.56;100.00;61375.16;4919866;28;20035;-64
2022/02/01 10:28:49;;;;;;;9.93;3.50;;;;;;;-148.56;100.00;61375.16;4936146;28;20190;-64
2022/02/01 10:31:19;;;;;;;11.05;3.63;;;;;;;-148.56;100.00;61375.16;4908779;28;20031;-66
2022/02/01 10:36:16;;;;;;;10.20;3.35;;;;;;;-148.56;100.00;61375.16;4920270;28;20031;-64
2022/02/01 10:38:41;;;;;;;10.20;3.10;;;;;;;-148.56;100.00;61375.16;4937039;28;20047;-65
2022/02/01 10:41:11;;;;;;;12.93;3.40;;;;;;;-148.56;100.00;61375.16;4917414;28;20031;-65
2022/02/01 10:43:37;;;;;;;8.18;3.35;;;;;;;-148.56;100.00;61375.16;4918916;28;20148;-65
2022/02/01 10:46:07;;;;;;;12.13;3.00;;;;;;;-148.56;100.00;61375.16;4919373;28;20063;-65
2022/02/01 10:48:33;;;;;;;9.50;3.33;;;;;;;-148.56;100.00;61375.16;4920124;28;20070;-65
2022/02/01 10:51:09;;;;;;;7.65;2.83;;;;;;;-148.56;100.00;61375.16;4912972;28;20517;-65
2022/02/01 10:53:36;;;;;;;10.23;3.22;;;;;;;-148.56;100.00;61375.16;4916259;29;20027;-65
2022/02/01 10:56:03;;;;;;;9.23;3.05;;;;;;;-148.56;100.00;61375.16;4919044;28;20054;-64
2022/02/01 10:58:28;;;;;;;8.48;3.08;;;;;;;-148.56;100.00;61375.16;4916423;28;20035;-60
2022/02/01 11:00:55;;;;;;;8.55;3.17;;;;;;;-148.56;100.00;61375.16;4918651;28;20058;-63
2022/02/01 11:03:20;;;;;;;9.20;3.17;;;;;;;-148.56;100.00;61375.16;4920176;28;20032;-63
2022/02/01 11:05:47;;;;;;;7.00;2.83;;;;;;;-148.56;100.00;61375.16;4908854;29;20035;-64
2022/02/01 11:08:14;;;;;;;4.60;2.60;;;;;;;-148.56;100.00;61375.16;4919455;28;20023;-63
2022/02/01 11:10:47;;;;;;;8.43;2.85;;;;;;;-148.56;100.00;61375.16;4935175;28;20035;-65
2022/02/01 11:13:13;;;;;;;7.13;2.53;;;;;;;-148.56;100.00;61375.16;4920496;29;20039;-62
2022/02/01 11:15:38;;;;;;;7.40;2.40;;;;;;;-148.56;100.00;61375.16;4922072;29;20039;-63
2022/02/01 11:18:15;;;;;;;7.22;2.33;;;;;;;-148.56;100.00;61375.16;4918787;28;20039;-60
2022/02/01 11:20:44;;;;;;;7.22;2.42;;;;;;;-148.56;100.00;61375.16;4920104;28;20037;-62
2022/02/01 11:23:20;;;;;;;6.22;2.55;;;;;;;-148.56;100.00;61375.16;4922119;28;20034;-66
2022/02/01 11:25:48;;;;;;;6.70;2.42;;;;;;;-148.56;100.00;61375.16;4925606;28;20097;-65
2022/02/01 11:31:02;;;;;;;6.70;2.30;;;;;;;-148.56;100.00;61375.16;4919225;28;20027;-65
2022/02/01 11:33:44;;;;;;;6.85;2.50;;;;;;;-148.56;100.00;61375.16;4919989;28;20035;-64
2022/02/01 11:36:10;;;;;;;5.72;2.58;;;;;;;-148.56;100.00;61375.16;4919317;28;20043;-63
2022/02/01 11:38:36;;;;;;;5.20;2.20;;;;;;;-148.56;100.00;61375.16;4927880;28;20035;-67
2022/02/01 11:41:06;;;;;;;6.57;2.08;;;;;;;-148.56;100.00;61375.16;4918976;28;20031;-66
2022/02/01 11:43:32;;;;;;;6.90;2.28;;;;;;;-148.56;100.00;61375.16;4919680;28;20035;-63
2022/02/01 11:46:01;;;;;;;4.25;2.00;;;;;;;-148.56;100.00;61375.16;4919404;28;20110;-63
2022/02/01 11:48:29;;;;;;;5.32;1.80;;;;;;;-148.56;100.00;61375.16;4921766;29;20021;-65
2022/02/01 11:51:02;;;;;;;6.78;2.10;;;;;;;-148.56;100.00;61375.16;4921060;28;20023;-65
2022/02/01 11:53:34;;;;;;;5.18;1.88;;;;;;;-148.56;100.00;61375.16;4920845;28;20066;-63
2022/02/01 11:56:00;;;;;;;3.70;1.75;;;;;;;-148.56;100.00;61375.16;4927065;28;20107;-63
2022/02/01 11:58:45;;;;;;;5.78;2.03;;;;;;;-148.56;100.00;61375.16;4924222;28;20067;-63
2022/02/01 12:01:24;;;;;;;5.63;2.13;;;;;;;-148.56;100.00;61375.16;4924479;28;20027;-64
2022/02/01 12:04:00;;;;;;;4.40;2.10;;;;;;;-148.56;100.00;61375.16;4927460;28;20059;-65
2022/02/01 12:06:25;;;;;;;3.50;1.83;;;;;;;-148.56;100.00;61375.16;4924854;28;20103;-64
2022/02/01 12:08:56;;;;;;;4.88;2.05;;;;;;;-148.56;100.00;61375.16;4927474;28;20043;-64
2022/02/01 12:11:21;;;;;;;5.13;2.10;;;;;;;-148.56;100.00;61375.16;4922416;28;20039;-64
2022/02/01 12:13:48;;;;;;;3.28;1.55;;;;;;;-148.56;100.00;61375.16;4924523;28;20690;-65
2022/02/01 12:16:13;;;;;;;4.38;1.90;;;;;;;-148.56;100.00;61375.16;4923627;28;20035;-65
2022/02/01 12:19:02;;;;;;;3.83;1.50;;;;;;;-148.56;100.00;61375.16;4930320;28;20044;-65
2022/02/01 12:21:49;;;;;;;3.67;2.00;;;;;;;-148.56;100.00;61375.16;4918284;28;20086;-63
2022/02/01 12:24:14;;;;;;;3.83;1.60;;;;;;;-148.56;100.00;61375.16;4922911;28;20062;-60
2022/02/01 12:26:41;;;;;;;5.00;1.85;;;;;;;-148.56;100.00;61375.16;4914203;28;20036;-61
2022/02/01 12:29:09;;;;;;;4.68;1.60;;;;;;;-148.56;100.00;61375.16;4935709;28;20038;-64
2022/02/01 12:31:39;;;;;;;4.30;1.85;;;;;;;-148.56;100.00;61375.16;4923118;28;20059;-64
2022/02/01 12:34:05;;;;;;;4.78;1.50;;;;;;;-148.56;100.00;61375.16;4922850;28;20159;-65
2022/02/01 12:36:36;;;;;;;4.57;1.77;;;;;;;-148.56;100.00;61375.16;4917825;28;20043;-65
2022/02/01 12:42:01;;;;;;;4.75;1.75;;;;;;;-148.56;100.00;61375.16;4921432;28;20091;-64
2022/02/01 12:47:00;;;;;;;4.22;1.80;;;;;;;-148.56;100.00;61375.16;4921089;28;20070;-66
2022/02/01 12:49:41;;;;;;;4.18;1.73;;;;;;;-148.56;100.00;61375.16;4918277;28;20074;-65